sensor_id;sensor_type;location;lat;lon;timestamp;P1;durP1;ratioP1;P2;durP2;ratioP2
24715;SDS011;12822;50.124;8.678;2022-07-29T00:00:57;10.90;;;1.50;;
24715;SDS011;12822;50.124;8.678;2022-07-29T00:03:23;7.75;;;1.73;;
24715;SDS011;12822;50.124;8.678;2022-07-29T00:05:49;8.65;;;1.95;;
24715;SDS011;12822;50.124;8.678;2022-07-29T00:08:16;8.32;;;1.88;;
24715;SDS011;12822;50.124;8.678;2022-07-29T00:10:42;10.90;;;1.90;;
24715;SDS011;12822;50.124;8.678;2022-07-29T00:13:08;5.22;;;1.92;;
24715;SDS011;12822;50.124;8.678;2022-07-29T00:15:35;12.25;;;1.70;;
24715;SDS011;12822;50.124;8.678;2022-07-29T00:18:01;6.55;;;1.83;;
24715;SDS011;12822;50.124;8.678;2022-07-29T00:20:27;5.47;;;1.67;;
24715;SDS011;12822;50.124;8.678;2022-07-29T00:22:52;6.88;;;1.77;;
24715;SDS011;12822;50.124;8.678;2022-07-29T00:25:19;10.00;;;1.67;;
24715;SDS011;12822;50.124;8.678;2022-07-29T00:27:45;6.43;;;1.85;;
24715;SDS011;12822;50.124;8.678;2022-07-29T00:30:11;9.73;;;1.70;;
24715;SDS011;12822;50.124;8.678;2022-07-29T00:32:37;5.07;;;1.50;;
24715;SDS011;12822;50.124;8.678;2022-07-29T00:35:03;8.50;;;1.77;;
24715;SDS011;12822;50.124;8.678;2022-07-29T00:37:48;6.78;;;1.63;;
24715;SDS011;12822;50.124;8.678;2022-07-29T00:40:14;8.13;;;2.00;;
24715;SDS011;12822;50.124;8.678;2022-07-29T00:42:47;4.95;;;1.75;;
24715;SDS011;12822;50.124;8.678;2022-07-29T00:45:14;4.15;;;1.70;;
24715;SDS011;12822;50.124;8.678;2022-07-29T00:47:40;5.13;;;1.63;;
24715;SDS011;12822;50.124;8.678;2022-07-29T00:50:07;5.30;;;1.83;;
24715;SDS011;12822;50.124;8.678;2022-07-29T00:52:34;12.07;;;1.75;;
24715;SDS011;12822;50.124;8.678;2022-07-29T00:55:02;7.35;;;1.80;;
24715;SDS011;12822;50.124;8.678;2022-07-29T00:57:28;9.25;;;1.70;;
24715;SDS011;12822;50.124;8.678;2022-07-29T00:59:54;9.10;;;1.50;;
24715;SDS011;12822;50.124;8.678;2022-07-29T01:02:20;7.13;;;1.60;;
24715;SDS011;12822;50.124;8.678;2022-07-29T01:04:46;4.82;;;2.05;;
24715;SDS011;12822;50.124;8.678;2022-07-29T01:07:13;9.52;;;2.30;;
24715;SDS011;12822;50.124;8.678;2022-07-29T01:09:39;8.02;;;2.20;;
24715;SDS011;12822;50.124;8.678;2022-07-29T01:12:06;5.93;;;1.95;;
24715;SDS011;12822;50.124;8.678;2022-07-29T01:14:32;8.82;;;2.47;;
24715;SDS011;12822;50.124;8.678;2022-07-29T01:17:00;10.55;;;1.90;;
24715;SDS011;12822;50.124;8.678;2022-07-29T01:21:55;9.27;;;2.13;;
24715;SDS011;12822;50.124;8.678;2022-07-29T01:29:41;5.20;;;2.05;;
24715;SDS011;12822;50.124;8.678;2022-07-29T01:32:08;10.98;;;2.22;;
24715;SDS011;12822;50.124;8.678;2022-07-29T01:37:04;5.45;;;2.20;;
24715;SDS011;12822;50.124;8.678;2022-07-29T01:39:36;9.07;;;2.30;;
24715;SDS011;12822;50.124;8.678;2022-07-29T01:44:32;5.70;;;2.30;;
24715;SDS011;12822;50.124;8.678;2022-07-29T01:47:01;7.22;;;2.15;;
24715;SDS011;12822;50.124;8.678;2022-07-29T01:49:28;6.30;;;2.28;;
24715;SDS011;12822;50.124;8.678;2022-07-29T01:51:57;7.28;;;2.40;;
24715;SDS011;12822;50.124;8.678;2022-07-29T01:56:56;3.70;;;2.13;;
24715;SDS011;12822;50.124;8.678;2022-07-29T01:59:22;8.02;;;2.13;;
24715;SDS011;12822;50.124;8.678;2022-07-29T02:01:49;7.25;;;2.10;;
24715;SDS011;12822;50.124;8.678;2022-07-29T02:04:16;5.10;;;2.20;;
24715;SDS011;12822;50.124;8.678;2022-07-29T02:06:43;4.40;;;2.08;;
24715;SDS011;12822;50.124;8.678;2022-07-29T02:09:10;4.88;;;2.30;;
24715;SDS011;12822;50.124;8.678;2022-07-29T02:11:37;7.30;;;2.35;;
24715;SDS011;12822;50.124;8.678;2022-07-29T02:14:04;12.38;;;2.60;;
24715;SDS011;12822;50.124;8.678;2022-07-29T02:16:30;13.75;;;2.20;;
24715;SDS011;12822;50.124;8.678;2022-07-29T02:18:58;6.32;;;1.98;;
24715;SDS011;12822;50.124;8.678;2022-07-29T02:21:25;8.52;;;2.00;;
24715;SDS011;12822;50.124;8.678;2022-07-29T02:23:52;7.80;;;2.13;;
24715;SDS011;12822;50.124;8.678;2022-07-29T02:26:22;4.78;;;1.92;;
24715;SDS011;12822;50.124;8.678;2022-07-29T02:28:49;8.00;;;2.35;;
24715;SDS011;12822;50.124;8.678;2022-07-29T02:31:16;4.78;;;2.15;;
24715;SDS011;12822;50.124;8.678;2022-07-29T02:33:44;6.47;;;2.65;;
24715;SDS011;12822;50.124;8.678;2022-07-29T02:36:11;8.65;;;2.65;;
24715;SDS011;12822;50.124;8.678;2022-07-29T02:38:37;5.60;;;2.63;;
24715;SDS011;12822;50.124;8.678;2022-07-29T02:44:05;6.55;;;2.63;;
24715;SDS011;12822;50.124;8.678;2022-07-29T02:46:32;8.00;;;2.13;;
24715;SDS011;12822;50.124;8.678;2022-07-29T02:51:46;7.88;;;2.53;;
24715;SDS011;12822;50.124;8.678;2022-07-29T02:57:06;10.90;;;2.58;;
24715;SDS011;12822;50.124;8.678;2022-07-29T02:59:35;13.02;;;2.78;;
24715;SDS011;12822;50.124;8.678;2022-07-29T03:02:02;9.93;;;2.70;;
24715;SDS011;12822;50.124;8.678;2022-07-29T03:04:30;8.57;;;2.50;;
24715;SDS011;12822;50.124;8.678;2022-07-29T03:06:57;5.68;;;2.47;;
24715;SDS011;12822;50.124;8.678;2022-07-29T03:09:24;9.65;;;2.78;;
24715;SDS011;12822;50.124;8.678;2022-07-29T03:11:50;7.20;;;2.58;;
24715;SDS011;12822;50.124;8.678;2022-07-29T03:14:19;7.15;;;2.60;;
24715;SDS011;12822;50.124;8.678;2022-07-29T03:16:45;7.40;;;2.65;;
24715;SDS011;12822;50.124;8.678;2022-07-29T03:19:12;11.13;;;3.00;;
24715;SDS011;12822;50.124;8.678;2022-07-29T03:21:38;6.75;;;2.50;;
24715;SDS011;12822;50.124;8.678;2022-07-29T03:24:04;7.38;;;2.30;;
24715;SDS011;12822;50.124;8.678;2022-07-29T03:26:30;7.15;;;2.72;;
24715;SDS011;12822;50.124;8.678;2022-07-29T03:28:56;9.35;;;2.53;;
24715;SDS011;12822;50.124;8.678;2022-07-29T03:31:22;8.20;;;2.67;;
24715;SDS011;12822;50.124;8.678;2022-07-29T03:33:48;8.43;;;2.65;;
24715;SDS011;12822;50.124;8.678;2022-07-29T03:36:14;6.95;;;2.60;;
24715;SDS011;12822;50.124;8.678;2022-07-29T03:38:40;8.85;;;2.50;;
24715;SDS011;12822;50.124;8.678;2022-07-29T03:41:09;6.78;;;2.75;;
24715;SDS011;12822;50.124;8.678;2022-07-29T03:43:36;11.02;;;3.10;;
24715;SDS011;12822;50.124;8.678;2022-07-29T03:46:03;5.40;;;2.60;;
24715;SDS011;12822;50.124;8.678;2022-07-29T03:48:29;6.70;;;2.45;;
24715;SDS011;12822;50.124;8.678;2022-07-29T03:50:57;7.40;;;2.15;;
24715;SDS011;12822;50.124;8.678;2022-07-29T03:53:23;8.40;;;2.50;;
24715;SDS011;12822;50.124;8.678;2022-07-29T03:55:50;10.93;;;2.83;;
24715;SDS011;12822;50.124;8.678;2022-07-29T03:58:17;6.43;;;2.80;;
24715;SDS011;12822;50.124;8.678;2022-07-29T04:00:44;5.60;;;2.30;;
24715;SDS011;12822;50.124;8.678;2022-07-29T04:03:11;13.40;;;2.60;;
24715;SDS011;12822;50.124;8.678;2022-07-29T04:05:37;6.68;;;3.05;;
24715;SDS011;12822;50.124;8.678;2022-07-29T04:08:03;7.85;;;2.33;;
24715;SDS011;12822;50.124;8.678;2022-07-29T04:10:29;8.98;;;2.60;;
24715;SDS011;12822;50.124;8.678;2022-07-29T04:12:55;6.30;;;2.40;;
24715;SDS011;12822;50.124;8.678;2022-07-29T04:15:21;9.68;;;2.72;;
24715;SDS011;12822;50.124;8.678;2022-07-29T04:17:47;6.55;;;2.40;;
24715;SDS011;12822;50.124;8.678;2022-07-29T04:20:13;8.82;;;3.03;;
24715;SDS011;12822;50.124;8.678;2022-07-29T04:22:39;13.50;;;3.03;;
24715;SDS011;12822;50.124;8.678;2022-07-29T04:25:05;7.10;;;2.40;;
24715;SDS011;12822;50.124;8.678;2022-07-29T04:27:31;5.22;;;2.47;;
24715;SDS011;12822;50.124;8.678;2022-07-29T04:29:57;10.27;;;2.70;;
24715;SDS011;12822;50.124;8.678;2022-07-29T04:32:24;8.52;;;2.47;;
24715;SDS011;12822;50.124;8.678;2022-07-29T04:34:50;12.82;;;2.60;;
24715;SDS011;12822;50.124;8.678;2022-07-29T04:37:16;4.75;;;2.03;;
24715;SDS011;12822;50.124;8.678;2022-07-29T04:39:42;6.93;;;2.25;;
24715;SDS011;12822;50.124;8.678;2022-07-29T04:42:08;7.95;;;2.63;;
24715;SDS011;12822;50.124;8.678;2022-07-29T04:44:34;10.77;;;2.67;;
24715;SDS011;12822;50.124;8.678;2022-07-29T04:47:00;8.85;;;2.42;;
24715;SDS011;12822;50.124;8.678;2022-07-29T04:49:26;8.95;;;2.80;;
24715;SDS011;12822;50.124;8.678;2022-07-29T04:51:52;13.02;;;2.80;;
24715;SDS011;12822;50.124;8.678;2022-07-29T04:54:18;7.05;;;2.38;;
24715;SDS011;12822;50.124;8.678;2022-07-29T04:56:44;8.45;;;2.50;;
24715;SDS011;12822;50.124;8.678;2022-07-29T04:59:11;4.55;;;2.10;;
24715;SDS011;12822;50.124;8.678;2022-07-29T05:01:37;7.30;;;2.50;;
24715;SDS011;12822;50.124;8.678;2022-07-29T05:04:03;6.30;;;2.30;;
24715;SDS011;12822;50.124;8.678;2022-07-29T05:06:29;5.28;;;2.25;;
24715;SDS011;12822;50.124;8.678;2022-07-29T05:08:55;7.88;;;2.45;;
24715;SDS011;12822;50.124;8.678;2022-07-29T05:11:21;12.32;;;2.60;;
24715;SDS011;12822;50.124;8.678;2022-07-29T05:13:47;6.32;;;2.55;;
24715;SDS011;12822;50.124;8.678;2022-07-29T05:16:13;13.68;;;2.65;;
24715;SDS011;12822;50.124;8.678;2022-07-29T05:18:39;7.20;;;3.30;;
24715;SDS011;12822;50.124;8.678;2022-07-29T05:21:05;7.57;;;2.70;;
24715;SDS011;12822;50.124;8.678;2022-07-29T05:23:31;5.13;;;2.50;;
24715;SDS011;12822;50.124;8.678;2022-07-29T05:25:57;6.25;;;2.40;;
24715;SDS011;12822;50.124;8.678;2022-07-29T05:28:23;10.23;;;2.63;;
24715;SDS011;12822;50.124;8.678;2022-07-29T05:30:49;12.20;;;2.53;;
24715;SDS011;12822;50.124;8.678;2022-07-29T05:33:15;18.80;;;2.80;;
24715;SDS011;12822;50.124;8.678;2022-07-29T05:35:41;9.05;;;2.50;;
24715;SDS011;12822;50.124;8.678;2022-07-29T05:38:07;10.38;;;2.72;;
24715;SDS011;12822;50.124;8.678;2022-07-29T05:40:33;9.65;;;2.67;;
24715;SDS011;12822;50.124;8.678;2022-07-29T05:42:59;11.68;;;3.92;;
24715;SDS011;12822;50.124;8.678;2022-07-29T05:45:25;12.15;;;3.22;;
24715;SDS011;12822;50.124;8.678;2022-07-29T05:47:52;11.27;;;3.00;;
24715;SDS011;12822;50.124;8.678;2022-07-29T05:50:18;8.60;;;3.30;;
24715;SDS011;12822;50.124;8.678;2022-07-29T05:52:44;16.80;;;3.53;;
24715;SDS011;12822;50.124;8.678;2022-07-29T05:55:10;9.73;;;3.00;;
24715;SDS011;12822;50.124;8.678;2022-07-29T05:57:36;13.10;;;2.78;;
24715;SDS011;12822;50.124;8.678;2022-07-29T06:00:02;8.93;;;2.17;;
24715;SDS011;12822;50.124;8.678;2022-07-29T06:02:29;10.68;;;2.95;;
24715;SDS011;12822;50.124;8.678;2022-07-29T06:04:55;13.55;;;2.88;;
24715;SDS011;12822;50.124;8.678;2022-07-29T06:07:21;10.63;;;2.65;;
24715;SDS011;12822;50.124;8.678;2022-07-29T06:09:47;19.08;;;3.08;;
24715;SDS011;12822;50.124;8.678;2022-07-29T06:12:13;9.05;;;2.80;;
24715;SDS011;12822;50.124;8.678;2022-07-29T06:14:39;12.35;;;2.88;;
24715;SDS011;12822;50.124;8.678;2022-07-29T06:17:05;8.50;;;2.75;;
24715;SDS011;12822;50.124;8.678;2022-07-29T06:19:33;7.53;;;2.60;;
24715;SDS011;12822;50.124;8.678;2022-07-29T06:21:59;6.47;;;2.20;;
24715;SDS011;12822;50.124;8.678;2022-07-29T06:24:26;6.93;;;2.47;;
24715;SDS011;12822;50.124;8.678;2022-07-29T06:26:52;9.55;;;2.90;;
24715;SDS011;12822;50.124;8.678;2022-07-29T06:29:18;9.10;;;2.83;;
24715;SDS011;12822;50.124;8.678;2022-07-29T06:31:46;8.85;;;2.70;;
24715;SDS011;12822;50.124;8.678;2022-07-29T06:34:12;10.60;;;2.53;;
24715;SDS011;12822;50.124;8.678;2022-07-29T06:36:38;6.97;;;2.25;;
24715;SDS011;12822;50.124;8.678;2022-07-29T06:39:05;9.45;;;2.38;;
24715;SDS011;12822;50.124;8.678;2022-07-29T06:41:57;12.10;;;2.60;;
24715;SDS011;12822;50.124;8.678;2022-07-29T06:44:23;21.27;;;3.63;;
24715;SDS011;12822;50.124;8.678;2022-07-29T06:46:59;9.85;;;2.60;;
24715;SDS011;12822;50.124;8.678;2022-07-29T06:49:25;9.20;;;2.10;;
24715;SDS011;12822;50.124;8.678;2022-07-29T06:51:52;8.10;;;2.55;;
24715;SDS011;12822;50.124;8.678;2022-07-29T06:54:19;7.05;;;2.45;;
24715;SDS011;12822;50.124;8.678;2022-07-29T06:56:45;10.95;;;2.35;;
24715;SDS011;12822;50.124;8.678;2022-07-29T06:59:11;10.80;;;2.55;;
24715;SDS011;12822;50.124;8.678;2022-07-29T07:01:38;12.93;;;2.78;;
24715;SDS011;12822;50.124;8.678;2022-07-29T07:04:04;7.90;;;2.20;;
24715;SDS011;12822;50.124;8.678;2022-07-29T07:06:30;9.32;;;2.13;;
24715;SDS011;12822;50.124;8.678;2022-07-29T07:08:57;6.40;;;2.42;;
24715;SDS011;12822;50.124;8.678;2022-07-29T07:11:23;9.18;;;2.60;;
24715;SDS011;12822;50.124;8.678;2022-07-29T07:13:49;7.97;;;2.53;;
24715;SDS011;12822;50.124;8.678;2022-07-29T07:16:15;6.93;;;2.00;;
24715;SDS011;12822;50.124;8.678;2022-07-29T07:18:41;8.50;;;2.35;;
24715;SDS011;12822;50.124;8.678;2022-07-29T07:21:07;7.30;;;2.47;;
24715;SDS011;12822;50.124;8.678;2022-07-29T07:23:33;8.43;;;2.40;;
24715;SDS011;12822;50.124;8.678;2022-07-29T07:25:59;5.60;;;2.20;;
24715;SDS011;12822;50.124;8.678;2022-07-29T07:28:25;6.32;;;2.30;;
24715;SDS011;12822;50.124;8.678;2022-07-29T07:30:51;5.13;;;2.00;;
24715;SDS011;12822;50.124;8.678;2022-07-29T07:33:17;9.73;;;2.35;;
24715;SDS011;12822;50.124;8.678;2022-07-29T07:35:43;8.50;;;2.40;;
24715;SDS011;12822;50.124;8.678;2022-07-29T07:38:09;6.10;;;1.90;;
24715;SDS011;12822;50.124;8.678;2022-07-29T07:40:35;10.20;;;2.17;;
24715;SDS011;12822;50.124;8.678;2022-07-29T07:43:02;4.78;;;2.22;;
24715;SDS011;12822;50.124;8.678;2022-07-29T07:45:28;7.97;;;2.17;;
24715;SDS011;12822;50.124;8.678;2022-07-29T07:47:54;5.90;;;2.10;;
24715;SDS011;12822;50.124;8.678;2022-07-29T07:50:20;5.93;;;2.67;;
24715;SDS011;12822;50.124;8.678;2022-07-29T07:52:50;5.47;;;1.83;;
24715;SDS011;12822;50.124;8.678;2022-07-29T07:55:17;8.90;;;2.42;;
24715;SDS011;12822;50.124;8.678;2022-07-29T07:57:43;6.45;;;2.42;;
24715;SDS011;12822;50.124;8.678;2022-07-29T08:00:10;6.75;;;2.50;;
24715;SDS011;12822;50.124;8.678;2022-07-29T08:02:37;10.63;;;2.30;;
24715;SDS011;12822;50.124;8.678;2022-07-29T08:05:04;5.20;;;2.30;;
24715;SDS011;12822;50.124;8.678;2022-07-29T08:07:30;3.97;;;2.20;;
24715;SDS011;12822;50.124;8.678;2022-07-29T08:09:56;5.05;;;2.33;;
24715;SDS011;12822;50.124;8.678;2022-07-29T08:12:22;8.05;;;2.40;;
24715;SDS011;12822;50.124;8.678;2022-07-29T08:14:48;7.57;;;2.22;;
24715;SDS011;12822;50.124;8.678;2022-07-29T08:17:20;6.38;;;2.13;;
24715;SDS011;12822;50.124;8.678;2022-07-29T08:19:49;7.57;;;2.35;;
24715;SDS011;12822;50.124;8.678;2022-07-29T08:22:15;4.70;;;2.42;;
24715;SDS011;12822;50.124;8.678;2022-07-29T08:24:41;7.38;;;2.50;;
24715;SDS011;12822;50.124;8.678;2022-07-29T08:27:07;8.75;;;2.72;;
24715;SDS011;12822;50.124;8.678;2022-07-29T08:29:33;6.18;;;2.30;;
24715;SDS011;12822;50.124;8.678;2022-07-29T08:32:00;5.78;;;2.15;;
24715;SDS011;12822;50.124;8.678;2022-07-29T08:34:26;9.30;;;2.45;;
24715;SDS011;12822;50.124;8.678;2022-07-29T08:36:53;4.18;;;2.10;;
24715;SDS011;12822;50.124;8.678;2022-07-29T08:39:19;7.25;;;2.33;;
24715;SDS011;12822;50.124;8.678;2022-07-29T08:41:45;7.13;;;2.22;;
24715;SDS011;12822;50.124;8.678;2022-07-29T08:44:12;4.05;;;2.28;;
24715;SDS011;12822;50.124;8.678;2022-07-29T08:46:41;5.45;;;2.47;;
24715;SDS011;12822;50.124;8.678;2022-07-29T08:49:08;7.32;;;2.20;;
24715;SDS011;12822;50.124;8.678;2022-07-29T08:51:34;5.05;;;1.85;;
24715;SDS011;12822;50.124;8.678;2022-07-29T08:54:02;6.60;;;2.22;;
24715;SDS011;12822;50.124;8.678;2022-07-29T08:56:28;8.00;;;2.05;;
24715;SDS011;12822;50.124;8.678;2022-07-29T08:58:54;6.82;;;2.42;;
24715;SDS011;12822;50.124;8.678;2022-07-29T09:01:25;8.77;;;2.53;;
24715;SDS011;12822;50.124;8.678;2022-07-29T09:03:51;6.15;;;2.13;;
24715;SDS011;12822;50.124;8.678;2022-07-29T09:06:20;6.65;;;2.72;;
24715;SDS011;12822;50.124;8.678;2022-07-29T09:08:47;7.68;;;2.35;;
24715;SDS011;12822;50.124;8.678;2022-07-29T09:11:13;11.93;;;2.38;;
24715;SDS011;12822;50.124;8.678;2022-07-29T09:13:40;8.63;;;2.38;;
24715;SDS011;12822;50.124;8.678;2022-07-29T09:16:06;7.95;;;2.88;;
24715;SDS011;12822;50.124;8.678;2022-07-29T09:20:59;7.53;;;2.50;;
24715;SDS011;12822;50.124;8.678;2022-07-29T09:26:29;4.43;;;2.03;;
24715;SDS011;12822;50.124;8.678;2022-07-29T09:28:55;6.68;;;2.25;;
24715;SDS011;12822;50.124;8.678;2022-07-29T09:31:35;7.28;;;2.50;;
24715;SDS011;12822;50.124;8.678;2022-07-29T09:34:01;4.50;;;2.17;;
24715;SDS011;12822;50.124;8.678;2022-07-29T09:36:27;8.07;;;2.45;;
24715;SDS011;12822;50.124;8.678;2022-07-29T09:39:01;4.00;;;2.08;;
24715;SDS011;12822;50.124;8.678;2022-07-29T09:41:28;4.57;;;2.03;;
24715;SDS011;12822;50.124;8.678;2022-07-29T09:43:55;5.03;;;2.22;;
24715;SDS011;12822;50.124;8.678;2022-07-29T09:46:21;7.47;;;1.98;;
24715;SDS011;12822;50.124;8.678;2022-07-29T09:49:09;6.28;;;2.13;;
24715;SDS011;12822;50.124;8.678;2022-07-29T09:51:34;9.00;;;2.33;;
24715;SDS011;12822;50.124;8.678;2022-07-29T09:54:00;6.45;;;1.90;;
24715;SDS011;12822;50.124;8.678;2022-07-29T09:56:41;7.05;;;2.05;;
24715;SDS011;12822;50.124;8.678;2022-07-29T09:59:08;8.55;;;2.30;;
24715;SDS011;12822;50.124;8.678;2022-07-29T10:01:36;5.05;;;2.03;;
24715;SDS011;12822;50.124;8.678;2022-07-29T10:04:03;8.40;;;2.20;;
24715;SDS011;12822;50.124;8.678;2022-07-29T10:06:29;4.15;;;1.83;;
24715;SDS011;12822;50.124;8.678;2022-07-29T10:09:06;4.85;;;2.20;;
24715;SDS011;12822;50.124;8.678;2022-07-29T10:11:33;4.80;;;2.00;;
24715;SDS011;12822;50.124;8.678;2022-07-29T10:13:59;5.88;;;2.08;;
24715;SDS011;12822;50.124;8.678;2022-07-29T10:16:27;9.18;;;2.30;;
24715;SDS011;12822;50.124;8.678;2022-07-29T10:18:57;10.00;;;2.30;;
24715;SDS011;12822;50.124;8.678;2022-07-29T10:21:27;7.55;;;2.00;;
24715;SDS011;12822;50.124;8.678;2022-07-29T10:23:53;4.43;;;1.83;;
24715;SDS011;12822;50.124;8.678;2022-07-29T10:26:19;8.25;;;2.10;;
24715;SDS011;12822;50.124;8.678;2022-07-29T10:28:47;3.67;;;1.70;;
24715;SDS011;12822;50.124;8.678;2022-07-29T10:31:20;4.43;;;2.10;;
24715;SDS011;12822;50.124;8.678;2022-07-29T10:33:55;6.05;;;2.03;;
24715;SDS011;12822;50.124;8.678;2022-07-29T10:36:27;4.65;;;2.03;;
24715;SDS011;12822;50.124;8.678;2022-07-29T10:44:00;5.60;;;1.90;;
24715;SDS011;12822;50.124;8.678;2022-07-29T10:46:27;5.07;;;1.88;;
24715;SDS011;12822;50.124;8.678;2022-07-29T10:54:16;4.65;;;1.73;;
24715;SDS011;12822;50.124;8.678;2022-07-29T10:56:42;5.28;;;1.80;;
24715;SDS011;12822;50.124;8.678;2022-07-29T11:01:48;4.50;;;2.08;;
24715;SDS011;12822;50.124;8.678;2022-07-29T11:09:30;6.75;;;2.03;;
24715;SDS011;12822;50.124;8.678;2022-07-29T11:11:56;3.92;;;1.88;;
24715;SDS011;12822;50.124;8.678;2022-07-29T11:17:07;5.88;;;1.70;;
24715;SDS011;12822;50.124;8.678;2022-07-29T11:19:33;4.18;;;2.00;;
24715;SDS011;12822;50.124;8.678;2022-07-29T11:22:00;7.05;;;1.85;;
24715;SDS011;12822;50.124;8.678;2022-07-29T11:24:29;3.58;;;1.92;;
24715;SDS011;12822;50.124;8.678;2022-07-29T11:29:32;3.95;;;1.90;;
24715;SDS011;12822;50.124;8.678;2022-07-29T11:32:08;6.20;;;2.00;;
24715;SDS011;12822;50.124;8.678;2022-07-29T11:34:35;4.60;;;1.95;;
24715;SDS011;12822;50.124;8.678;2022-07-29T11:39:34;5.50;;;1.85;;
24715;SDS011;12822;50.124;8.678;2022-07-29T11:45:01;4.63;;;2.30;;
24715;SDS011;12822;50.124;8.678;2022-07-29T11:47:28;5.40;;;2.55;;
24715;SDS011;12822;50.124;8.678;2022-07-29T11:49:55;3.47;;;2.00;;
24715;SDS011;12822;50.124;8.678;2022-07-29T11:52:22;4.20;;;2.22;;
24715;SDS011;12822;50.124;8.678;2022-07-29T11:54:51;5.05;;;2.47;;
24715;SDS011;12822;50.124;8.678;2022-07-29T11:57:20;6.45;;;2.28;;
24715;SDS011;12822;50.124;8.678;2022-07-29T11:59:47;3.25;;;1.92;;
24715;SDS011;12822;50.124;8.678;2022-07-29T12:02:14;5.18;;;2.28;;
24715;SDS011;12822;50.124;8.678;2022-07-29T12:04:54;7.18;;;2.20;;
24715;SDS011;12822;50.124;8.678;2022-07-29T12:07:30;3.50;;;2.20;;
24715;SDS011;12822;50.124;8.678;2022-07-29T12:09:56;6.47;;;2.30;;
24715;SDS011;12822;50.124;8.678;2022-07-29T12:12:22;5.85;;;2.20;;
24715;SDS011;12822;50.124;8.678;2022-07-29T12:14:48;4.13;;;2.00;;
24715;SDS011;12822;50.124;8.678;2022-07-29T12:17:25;6.53;;;2.20;;
24715;SDS011;12822;50.124;8.678;2022-07-29T12:19:52;5.75;;;2.30;;
24715;SDS011;12822;50.124;8.678;2022-07-29T12:22:27;7.57;;;2.33;;
24715;SDS011;12822;50.124;8.678;2022-07-29T12:24:54;6.18;;;2.10;;
24715;SDS011;12822;50.124;8.678;2022-07-29T12:27:21;5.35;;;2.38;;
24715;SDS011;12822;50.124;8.678;2022-07-29T12:30:02;5.22;;;2.10;;
24715;SDS011;12822;50.124;8.678;2022-07-29T12:32:34;3.90;;;2.00;;
24715;SDS011;12822;50.124;8.678;2022-07-29T12:35:18;5.88;;;1.90;;
24715;SDS011;12822;50.124;8.678;2022-07-29T12:37:46;7.30;;;1.95;;
24715;SDS011;12822;50.124;8.678;2022-07-29T12:40:13;5.72;;;2.00;;
24715;SDS011;12822;50.124;8.678;2022-07-29T12:42:41;6.80;;;2.17;;
24715;SDS011;12822;50.124;8.678;2022-07-29T12:45:07;5.85;;;2.03;;
24715;SDS011;12822;50.124;8.678;2022-07-29T12:47:50;5.72;;;1.88;;
24715;SDS011;12822;50.124;8.678;2022-07-29T12:50:17;4.28;;;1.85;;
24715;SDS011;12822;50.124;8.678;2022-07-29T12:52:43;8.20;;;1.92;;
24715;SDS011;12822;50.124;8.678;2022-07-29T12:55:10;4.72;;;1.80;;
24715;SDS011;12822;50.124;8.678;2022-07-29T12:57:45;4.68;;;1.90;;
24715;SDS011;12822;50.124;8.678;2022-07-29T13:00:12;7.18;;;1.98;;
24715;SDS011;12822;50.124;8.678;2022-07-29T13:02:39;8.63;;;2.30;;
24715;SDS011;12822;50.124;8.678;2022-07-29T13:05:06;6.80;;;1.95;;
24715;SDS011;12822;50.124;8.678;2022-07-29T13:07:37;7.15;;;2.00;;
24715;SDS011;12822;50.124;8.678;2022-07-29T13:10:17;3.97;;;1.92;;
24715;SDS011;12822;50.124;8.678;2022-07-29T13:15:31;4.93;;;2.00;;
24715;SDS011;12822;50.124;8.678;2022-07-29T13:20:24;4.68;;;2.10;;
24715;SDS011;12822;50.124;8.678;2022-07-29T13:22:52;5.07;;;2.40;;
24715;SDS011;12822;50.124;8.678;2022-07-29T13:25:31;4.45;;;2.00;;
24715;SDS011;12822;50.124;8.678;2022-07-29T13:27:58;7.95;;;2.05;;
24715;SDS011;12822;50.124;8.678;2022-07-29T13:30:25;10.35;;;2.10;;
24715;SDS011;12822;50.124;8.678;2022-07-29T13:32:51;5.60;;;2.35;;
24715;SDS011;12822;50.124;8.678;2022-07-29T13:35:18;9.15;;;2.67;;
24715;SDS011;12822;50.124;8.678;2022-07-29T13:37:45;7.60;;;2.50;;
24715;SDS011;12822;50.124;8.678;2022-07-29T13:40:11;7.30;;;2.30;;
24715;SDS011;12822;50.124;8.678;2022-07-29T13:42:38;6.80;;;2.28;;
24715;SDS011;12822;50.124;8.678;2022-07-29T13:45:06;6.75;;;2.38;;
24715;SDS011;12822;50.124;8.678;2022-07-29T13:47:32;6.22;;;2.42;;
24715;SDS011;12822;50.124;8.678;2022-07-29T13:50:01;8.68;;;2.35;;
24715;SDS011;12822;50.124;8.678;2022-07-29T13:52:27;4.80;;;2.25;;
24715;SDS011;12822;50.124;8.678;2022-07-29T13:54:53;10.10;;;2.30;;
24715;SDS011;12822;50.124;8.678;2022-07-29T13:57:21;6.80;;;2.28;;
24715;SDS011;12822;50.124;8.678;2022-07-29T13:59:47;6.07;;;2.38;;
24715;SDS011;12822;50.124;8.678;2022-07-29T14:02:13;7.70;;;2.20;;
24715;SDS011;12822;50.124;8.678;2022-07-29T14:04:39;4.55;;;2.40;;
24715;SDS011;12822;50.124;8.678;2022-07-29T14:07:06;5.75;;;2.13;;
24715;SDS011;12822;50.124;8.678;2022-07-29T14:09:32;5.80;;;2.60;;
24715;SDS011;12822;50.124;8.678;2022-07-29T14:11:58;6.28;;;2.25;;
24715;SDS011;12822;50.124;8.678;2022-07-29T14:14:24;6.35;;;2.30;;
24715;SDS011;12822;50.124;8.678;2022-07-29T14:16:50;4.68;;;2.17;;
24715;SDS011;12822;50.124;8.678;2022-07-29T14:19:16;6.43;;;2.50;;
24715;SDS011;12822;50.124;8.678;2022-07-29T14:21:42;4.40;;;2.42;;
24715;SDS011;12822;50.124;8.678;2022-07-29T14:24:08;4.88;;;2.28;;
24715;SDS011;12822;50.124;8.678;2022-07-29T14:26:34;4.85;;;2.30;;
24715;SDS011;12822;50.124;8.678;2022-07-29T14:29:00;6.53;;;2.60;;
24715;SDS011;12822;50.124;8.678;2022-07-29T14:31:26;6.13;;;2.63;;
24715;SDS011;12822;50.124;8.678;2022-07-29T14:33:52;6.93;;;2.45;;
24715;SDS011;12822;50.124;8.678;2022-07-29T14:36:18;5.00;;;2.33;;
24715;SDS011;12822;50.124;8.678;2022-07-29T14:38:44;8.05;;;2.47;;
24715;SDS011;12822;50.124;8.678;2022-07-29T14:41:10;6.18;;;2.33;;
24715;SDS011;12822;50.124;8.678;2022-07-29T14:43:36;8.93;;;2.50;;
24715;SDS011;12822;50.124;8.678;2022-07-29T14:46:02;11.23;;;2.88;;
24715;SDS011;12822;50.124;8.678;2022-07-29T14:48:28;9.20;;;2.85;;
24715;SDS011;12822;50.124;8.678;2022-07-29T14:50:54;7.35;;;2.90;;
24715;SDS011;12822;50.124;8.678;2022-07-29T14:53:21;5.35;;;2.55;;
24715;SDS011;12822;50.124;8.678;2022-07-29T14:55:47;8.20;;;2.85;;
24715;SDS011;12822;50.124;8.678;2022-07-29T14:58:14;6.07;;;2.42;;
24715;SDS011;12822;50.124;8.678;2022-07-29T15:00:40;3.80;;;2.30;;
24715;SDS011;12822;50.124;8.678;2022-07-29T15:03:06;8.73;;;2.63;;
24715;SDS011;12822;50.124;8.678;2022-07-29T15:05:35;4.88;;;2.53;;
24715;SDS011;12822;50.124;8.678;2022-07-29T15:08:01;6.53;;;2.67;;
24715;SDS011;12822;50.124;8.678;2022-07-29T15:10:28;7.32;;;2.65;;
24715;SDS011;12822;50.124;8.678;2022-07-29T15:12:54;6.72;;;2.40;;
24715;SDS011;12822;50.124;8.678;2022-07-29T15:15:20;6.32;;;2.20;;
24715;SDS011;12822;50.124;8.678;2022-07-29T15:17:46;4.88;;;2.60;;
24715;SDS011;12822;50.124;8.678;2022-07-29T15:20:12;6.03;;;2.90;;
24715;SDS011;12822;50.124;8.678;2022-07-29T15:22:38;8.98;;;2.22;;
24715;SDS011;12822;50.124;8.678;2022-07-29T15:25:06;3.70;;;2.20;;
24715;SDS011;12822;50.124;8.678;2022-07-29T15:27:32;5.00;;;1.75;;
24715;SDS011;12822;50.124;8.678;2022-07-29T15:29:58;7.10;;;2.17;;
24715;SDS011;12822;50.124;8.678;2022-07-29T15:32:24;1.92;;;1.52;;
24715;SDS011;12822;50.124;8.678;2022-07-29T15:34:50;4.82;;;1.35;;
24715;SDS011;12822;50.124;8.678;2022-07-29T15:37:16;7.45;;;2.10;;
24715;SDS011;12822;50.124;8.678;2022-07-29T15:39:42;3.22;;;1.77;;
24715;SDS011;12822;50.124;8.678;2022-07-29T15:42:08;5.30;;;1.88;;
24715;SDS011;12822;50.124;8.678;2022-07-29T15:44:34;4.63;;;2.00;;
24715;SDS011;12822;50.124;8.678;2022-07-29T15:47:00;4.90;;;1.88;;
24715;SDS011;12822;50.124;8.678;2022-07-29T15:49:38;6.38;;;2.13;;